createdAt,value
2023-03-26T00:01:39.438Z,77.19
2023-03-26T00:04:06.627Z,77.61
2023-03-26T00:06:37.419Z,77.54
2023-03-26T00:09:04.329Z,76.16
2023-03-26T00:11:30.950Z,77.25
2023-03-26T00:13:57.779Z,77.59
2023-03-26T00:16:29.079Z,76.90
2023-03-26T00:18:55.882Z,77.25
2023-03-26T00:21:29.346Z,77.03
2023-03-26T00:24:09.820Z,76.50
2023-03-26T00:26:37.663Z,77.24
2023-03-26T00:29:04.507Z,77.54
2023-03-26T00:31:31.123Z,77.42
2023-03-26T00:33:57.832Z,76.79
2023-03-26T00:36:25.751Z,77.29
2023-03-26T00:38:53.600Z,76.37
2023-03-26T00:41:25.514Z,76.30
2023-03-26T00:43:56.677Z,76.42
2023-03-26T00:46:24.344Z,76.51
2023-03-26T00:48:50.910Z,77.47
2023-03-26T00:51:18.011Z,77.11
2023-03-26T00:53:45.794Z,78.23
2023-03-26T00:56:12.490Z,78.16
2023-03-26T00:58:39.125Z,77.16
2023-03-26T01:01:08.768Z,76.35
2023-03-26T01:03:36.314Z,76.26
2023-03-26T01:06:08.144Z,74.65
2023-03-26T01:08:38.391Z,74.98
2023-03-26T01:11:13.942Z,75.06
2023-03-26T01:13:49.896Z,75.77
2023-03-26T01:16:29.802Z,76.63
2023-03-26T01:18:58.780Z,76.28
2023-03-26T01:21:30.080Z,77.20
2023-03-26T01:24:05.114Z,77.66
2023-03-26T01:26:43.356Z,76.94
2023-03-26T01:29:16.364Z,75.71
2023-03-26T01:32:12.142Z,76.08
2023-03-26T01:34:52.269Z,76.11
2023-03-26T01:37:46.705Z,76.40
2023-03-26T01:40:28.933Z,76.03
2023-03-26T01:43:09.984Z,77.23
2023-03-26T01:45:37.638Z,77.35
2023-03-26T01:48:04.513Z,77.34
2023-03-26T01:50:31.286Z,77.53
2023-03-26T01:52:58.055Z,76.97
2023-03-26T01:55:26.970Z,77.01
2023-03-26T01:57:59.217Z,77.44
2023-03-26T02:00:31.943Z,76.91
2023-03-26T02:03:27.921Z,77.31
2023-03-26T02:06:17.479Z,77.53
2023-03-26T02:09:11.688Z,78.13
2023-03-26T02:11:38.370Z,77.38
2023-03-26T02:14:05.916Z,77.83
2023-03-26T02:16:32.491Z,77.18
2023-03-26T02:18:59.255Z,77.95
2023-03-26T02:21:26.354Z,78.00
2023-03-26T02:24:04.268Z,78.62
2023-03-26T02:26:31.727Z,77.26
2023-03-26T02:28:58.469Z,77.87
2023-03-26T02:31:28.006Z,77.79
2023-03-26T02:33:55.487Z,78.22
2023-03-26T02:36:27.519Z,78.81
2023-03-26T02:38:54.843Z,79.07
2023-03-26T02:41:21.520Z,79.16
2023-03-26T02:43:48.058Z,79.17
2023-03-26T02:46:14.566Z,78.42
2023-03-26T02:48:41.564Z,78.42
2023-03-26T02:51:08.094Z,79.18
2023-03-26T02:53:34.641Z,79.42
2023-03-26T02:56:01.113Z,78.63
2023-03-26T02:58:30.151Z,79.18
2023-03-26T03:00:56.765Z,78.08
2023-03-26T03:03:26.851Z,77.75
2023-03-26T03:05:54.382Z,77.96
2023-03-26T03:08:21.943Z,78.90
2023-03-26T03:10:57.812Z,79.62
2023-03-26T03:13:24.300Z,80.64
2023-03-26T03:15:50.860Z,81.12
2023-03-26T03:18:17.421Z,81.15
2023-03-26T03:20:44.603Z,80.57
2023-03-26T03:23:11.396Z,81.70
2023-03-26T03:25:38.339Z,82.39
2023-03-26T03:28:04.966Z,81.76
2023-03-26T03:30:31.537Z,82.38
2023-03-26T03:32:58.523Z,83.16
2023-03-26T03:35:25.785Z,83.63
2023-03-26T03:37:52.257Z,83.40
2023-03-26T03:40:19.701Z,83.45
2023-03-26T03:42:46.793Z,83.98
2023-03-26T03:45:13.381Z,83.83
2023-03-26T03:47:39.944Z,83.32
2023-03-26T03:50:07.235Z,84.11
2023-03-26T03:52:33.719Z,84.19
2023-03-26T03:55:02.769Z,84.43
2023-03-26T03:57:29.339Z,84.73
2023-03-26T03:59:58.973Z,84.64
2023-03-26T04:02:34.976Z,85.25
2023-03-26T04:05:02.524Z,85.62
2023-03-26T04:07:31.142Z,85.93
2023-03-26T04:10:00.183Z,85.89
2023-03-26T04:12:30.025Z,86.14
2023-03-26T04:14:56.605Z,85.89
2023-03-26T04:17:23.343Z,85.67
2023-03-26T04:19:50.473Z,86.15
2023-03-26T04:22:18.365Z,86.60
2023-03-26T04:24:45.322Z,86.74
2023-03-26T04:27:14.214Z,86.66
2023-03-26T04:29:42.906Z,86.93
2023-03-26T04:32:29.788Z,87.38
2023-03-26T04:35:00.313Z,87.50
2023-03-26T04:37:32.281Z,87.46
2023-03-26T04:39:59.206Z,87.95
2023-03-26T04:42:25.805Z,87.85
2023-03-26T04:44:52.401Z,88.11
2023-03-26T04:47:18.946Z,87.89
2023-03-26T04:49:46.135Z,88.16
2023-03-26T04:52:12.698Z,88.26
2023-03-26T04:54:39.488Z,88.50
2023-03-26T04:57:29.682Z,88.39
2023-03-26T04:59:56.304Z,88.43
2023-03-26T05:02:23.045Z,88.38
2023-03-26T05:04:50.811Z,88.59
2023-03-26T05:07:19.456Z,88.74
2023-03-26T05:09:46.089Z,88.71
2023-03-26T05:12:12.677Z,88.71
2023-03-26T05:14:39.139Z,88.70
2023-03-26T05:17:10.849Z,88.50
2023-03-26T05:19:38.961Z,89.21
2023-03-26T05:22:05.405Z,89.08
2023-03-26T05:24:31.894Z,89.23
2023-03-26T05:26:58.374Z,89.18
2023-03-26T05:29:24.944Z,88.96
2023-03-26T05:31:51.659Z,89.08
2023-03-26T05:34:19.624Z,89.22
2023-03-26T05:36:46.172Z,89.14
2023-03-26T05:39:14.218Z,89.13
2023-03-26T05:41:40.862Z,89.34
2023-03-26T05:44:07.407Z,89.28
2023-03-26T05:46:33.959Z,88.88
2023-03-26T05:49:00.857Z,89.44
2023-03-26T05:51:27.316Z,89.36
2023-03-26T05:53:53.777Z,89.11
2023-03-26T05:56:20.535Z,89.18
2023-03-26T05:58:47.512Z,88.99
2023-03-26T06:01:17.128Z,88.50
2023-03-26T06:03:47.466Z,88.34
2023-03-26T06:06:17.765Z,87.97
2023-03-26T06:08:48.997Z,88.51
2023-03-26T06:11:29.623Z,88.25
2023-03-26T06:13:56.126Z,87.61
2023-03-26T06:16:26.551Z,87.66
2023-03-26T06:18:56.594Z,86.67
2023-03-26T06:21:24.943Z,86.22
2023-03-26T06:23:51.763Z,85.32
2023-03-26T06:26:18.410Z,85.78
2023-03-26T06:28:44.923Z,85.65
2023-03-26T06:31:11.922Z,85.22
2023-03-26T06:33:38.603Z,84.74
2023-03-26T06:36:05.500Z,85.08
2023-03-26T06:38:31.993Z,86.08
2023-03-26T06:41:03.309Z,85.43
2023-03-26T06:43:33.572Z,85.47
2023-03-26T06:46:01.364Z,85.29
2023-03-26T06:48:27.879Z,84.74
2023-03-26T06:50:54.796Z,84.48
2023-03-26T06:53:21.430Z,84.09
2023-03-26T06:55:47.913Z,83.51
2023-03-26T06:58:14.496Z,84.12
2023-03-26T07:00:42.129Z,83.74
2023-03-26T07:03:08.744Z,84.40
2023-03-26T07:05:35.380Z,83.76
2023-03-26T07:08:02.881Z,83.02
2023-03-26T07:10:29.361Z,82.84
2023-03-26T07:12:56.416Z,82.86
2023-03-26T07:15:23.992Z,81.83
2023-03-26T07:17:50.589Z,82.51
2023-03-26T07:20:17.192Z,81.66
2023-03-26T07:22:43.857Z,82.32
2023-03-26T07:25:11.210Z,82.45
2023-03-26T07:27:37.753Z,81.84
2023-03-26T07:30:22.713Z,82.25
2023-03-26T07:32:59.563Z,82.66
2023-03-26T07:35:57.068Z,82.16
2023-03-26T07:38:46.305Z,81.97
2023-03-26T07:41:17.967Z,81.47
2023-03-26T07:44:09.029Z,80.81
2023-03-26T07:46:36.938Z,80.68
2023-03-26T07:49:05.185Z,82.12
2023-03-26T07:51:32.516Z,81.24
2023-03-26T07:54:00.524Z,79.94
2023-03-26T07:56:34.768Z,81.12
2023-03-26T07:59:34.582Z,80.08
2023-03-26T08:02:19.602Z,77.98
2023-03-26T08:04:55.447Z,78.93
2023-03-26T08:08:05.004Z,79.54
2023-03-26T08:10:45.908Z,79.25
2023-03-26T08:13:17.694Z,78.57
2023-03-26T08:16:07.972Z,80.07
2023-03-26T08:18:44.736Z,78.74
2023-03-26T08:21:14.134Z,78.79
2023-03-26T08:23:59.098Z,75.60
2023-03-26T08:26:31.434Z,76.00
2023-03-26T08:29:10.014Z,76.20
2023-03-26T08:31:38.996Z,77.45
2023-03-26T08:34:06.147Z,77.69
2023-03-26T08:36:32.646Z,78.51
2023-03-26T08:38:59.536Z,78.18
2023-03-26T08:41:35.272Z,78.73
2023-03-26T08:44:10.898Z,77.52
2023-03-26T08:46:57.302Z,78.45
2023-03-26T08:49:35.935Z,80.80
2023-03-26T08:52:30.774Z,79.71
2023-03-26T08:55:09.140Z,80.59
2023-03-26T08:57:44.654Z,79.76
2023-03-26T09:00:38.102Z,79.89
2023-03-26T09:03:08.715Z,80.81
2023-03-26T09:05:44.132Z,79.47
2023-03-26T09:08:20.652Z,78.66
2023-03-26T09:11:06.329Z,79.44
2023-03-26T09:13:55.466Z,80.90
2023-03-26T09:16:33.603Z,81.40
2023-03-26T09:19:24.809Z,80.32
2023-03-26T09:22:16.641Z,80.09
2023-03-26T09:25:13.484Z,80.73
2023-03-26T09:28:24.821Z,80.77
2023-03-26T09:31:06.380Z,82.57
2023-03-26T09:33:43.564Z,80.49
2023-03-26T09:36:22.741Z,80.86
2023-03-26T09:38:53.662Z,81.00
2023-03-26T09:41:35.722Z,81.54
2023-03-26T09:44:27.703Z,80.43
2023-03-26T09:47:19.750Z,81.69
2023-03-26T09:49:54.741Z,81.05
2023-03-26T09:52:40.378Z,81.10
2023-03-26T09:55:26.027Z,82.10
2023-03-26T09:58:11.446Z,80.55
2023-03-26T10:01:00.904Z,80.37
2023-03-26T10:03:38.114Z,80.79
2023-03-26T10:06:49.673Z,79.60
2023-03-26T10:09:30.340Z,79.34
2023-03-26T10:12:33.888Z,78.55
2023-03-26T10:15:19.040Z,79.40
2023-03-26T10:18:27.549Z,77.67
2023-03-26T10:21:04.628Z,78.50
2023-03-26T10:23:46.237Z,76.74
2023-03-26T10:27:09.007Z,78.57
2023-03-26T10:29:43.028Z,77.90
2023-03-26T10:32:31.330Z,79.08
2023-03-26T10:35:45.651Z,80.19
2023-03-26T10:38:30.743Z,79.81
2023-03-26T10:41:08.833Z,80.93
2023-03-26T10:44:07.890Z,83.16
2023-03-26T10:46:51.289Z,84.38
2023-03-26T10:49:49.041Z,85.65
2023-03-26T10:52:21.966Z,84.42
2023-03-26T10:55:12.108Z,81.27
2023-03-26T10:57:53.377Z,82.45
2023-03-26T11:00:28.972Z,84.28
2023-03-26T11:03:29.553Z,84.38
2023-03-26T11:06:23.677Z,84.59
2023-03-26T11:09:01.711Z,85.31
2023-03-26T11:12:25.764Z,85.48
2023-03-26T11:15:03.465Z,86.27
2023-03-26T11:17:43.811Z,86.43
2023-03-26T11:20:44.498Z,87.57
2023-03-26T11:23:29.598Z,87.63
2023-03-26T11:26:04.773Z,87.80
2023-03-26T11:28:40.357Z,88.14
2023-03-26T11:31:19.127Z,88.67
2023-03-26T11:33:48.048Z,86.84
2023-03-26T11:36:27.081Z,87.15
2023-03-26T11:38:55.041Z,86.71
2023-03-26T11:41:26.136Z,86.62
2023-03-26T11:43:55.908Z,87.04
2023-03-26T11:46:23.329Z,86.60
2023-03-26T11:48:52.741Z,87.61
2023-03-26T11:51:39.776Z,88.27
2023-03-26T11:54:07.804Z,88.48
2023-03-26T11:56:35.990Z,86.27
2023-03-26T11:59:14.774Z,86.52
2023-03-26T12:01:52.038Z,87.61
2023-03-26T12:04:20.345Z,86.92
2023-03-26T12:07:17.030Z,86.31
2023-03-26T12:09:56.430Z,85.41
2023-03-26T12:12:34.326Z,87.00
2023-03-26T12:15:01.048Z,85.30
2023-03-26T12:17:31.850Z,83.88
2023-03-26T12:19:58.584Z,84.27
2023-03-26T12:22:36.440Z,84.21
2023-03-26T12:25:12.878Z,83.91
2023-03-26T12:27:43.114Z,84.00
2023-03-26T12:30:31.054Z,83.18
2023-03-26T12:33:00.896Z,81.40
2023-03-26T12:35:29.189Z,81.22
2023-03-26T12:37:57.968Z,80.19
2023-03-26T12:40:32.478Z,79.47
2023-03-26T12:44:55.921Z,80.17
2023-03-26T12:46:20.662Z,82.50
2023-03-26T12:48:37.357Z,81.67
2023-03-26T12:51:17.046Z,81.29
2023-03-26T12:53:50.358Z,81.94
2023-03-26T12:56:21.866Z,81.15
2023-03-26T12:59:00.415Z,82.04
2023-03-26T13:01:28.651Z,79.90
2023-03-26T13:04:10.081Z,80.92
2023-03-26T13:07:00.556Z,81.24
2023-03-26T13:10:04.328Z,81.37
2023-03-26T13:12:49.622Z,81.85
2023-03-26T13:16:04.181Z,80.08
2023-03-26T13:19:24.529Z,80.15
2023-03-26T13:23:06.759Z,78.56
2023-03-26T13:26:28.405Z,79.71
2023-03-26T13:29:23.696Z,78.19
2023-03-26T13:31:58.047Z,77.32
2023-03-26T13:34:40.431Z,80.11
2023-03-26T13:37:31.251Z,80.30
2023-03-26T13:40:19.836Z,79.39
2023-03-26T13:43:01.903Z,76.96
2023-03-26T13:45:47.693Z,77.33
2023-03-26T13:48:18.404Z,77.38
2023-03-26T13:50:52.389Z,73.69
2023-03-26T13:53:22.940Z,75.29
2023-03-26T13:55:52.576Z,74.48
2023-03-26T13:58:34.764Z,75.86
2023-03-26T14:01:10.103Z,74.86
2023-03-26T14:04:06.040Z,72.19
2023-03-26T14:06:54.029Z,71.82
2023-03-26T14:09:45.622Z,72.52
2023-03-26T14:12:21.337Z,72.35
2023-03-26T14:15:09.326Z,73.17
2023-03-26T14:17:38.924Z,72.03
2023-03-26T14:20:17.618Z,71.63
2023-03-26T14:22:58.997Z,72.49
2023-03-26T14:25:50.745Z,74.10
2023-03-26T14:28:41.449Z,73.67
2023-03-26T14:31:41.978Z,72.64
2023-03-26T14:34:19.725Z,73.65
2023-03-26T14:36:53.714Z,74.94
2023-03-26T14:39:28.845Z,72.85
2023-03-26T14:42:02.759Z,73.54
2023-03-26T14:44:48.510Z,71.68
2023-03-26T14:47:23.878Z,70.95
2023-03-26T14:50:31.536Z,70.87
2023-03-26T14:53:00.863Z,70.75
2023-03-26T14:55:49.904Z,70.80
2023-03-26T14:58:23.802Z,70.28
2023-03-26T15:01:11.857Z,70.56
2023-03-26T15:04:02.778Z,70.52
2023-03-26T15:07:12.762Z,70.24
2023-03-26T15:10:01.101Z,70.22
2023-03-26T15:12:43.304Z,70.60
2023-03-26T15:15:31.679Z,70.20
2023-03-26T15:18:16.563Z,71.59
2023-03-26T15:20:48.777Z,72.03
2023-03-26T15:23:39.304Z,72.19
2023-03-26T15:26:46.514Z,71.63
2023-03-26T15:29:22.001Z,74.55
2023-03-26T15:32:16.949Z,75.14
2023-03-26T15:34:51.364Z,75.51
2023-03-26T15:37:42.653Z,76.36
2023-03-26T15:40:09.220Z,76.89
2023-03-26T15:42:45.645Z,78.04
2023-03-26T15:45:18.001Z,76.48
2023-03-26T15:48:11.615Z,73.75
2023-03-26T15:51:00.097Z,73.95
2023-03-26T15:53:38.367Z,73.25
2023-03-26T15:56:20.573Z,71.76
2023-03-26T15:58:52.228Z,73.43
2023-03-26T16:01:33.774Z,74.26
2023-03-26T16:04:38.776Z,73.07
2023-03-26T16:07:29.601Z,73.87
2023-03-26T16:10:17.115Z,74.35
2023-03-26T16:12:47.285Z,73.08
2023-03-26T16:15:21.175Z,72.18
2023-03-26T16:18:06.781Z,74.84
2023-03-26T16:20:34.966Z,72.96
2023-03-26T16:23:04.624Z,72.37
2023-03-26T16:25:35.381Z,72.66
2023-03-26T16:28:10.792Z,73.54
2023-03-26T16:30:37.613Z,73.94
2023-03-26T16:33:15.593Z,73.38
2023-03-26T16:36:34.434Z,74.04
2023-03-26T16:39:07.485Z,74.58
2023-03-26T16:41:37.319Z,74.82
2023-03-26T16:44:26.535Z,74.99
2023-03-26T16:47:08.315Z,73.67
2023-03-26T16:50:08.644Z,74.14
2023-03-26T16:52:54.464Z,74.28
2023-03-26T16:55:43.300Z,74.22
2023-03-26T16:58:31.522Z,75.56
2023-03-26T17:01:00.698Z,75.63
2023-03-26T17:03:33.965Z,75.61
2023-03-26T17:06:29.667Z,75.45
2023-03-26T17:09:01.322Z,76.69
2023-03-26T17:11:39.981Z,76.89
2023-03-26T17:14:27.282Z,77.50
2023-03-26T17:17:02.768Z,78.31
2023-03-26T17:19:59.808Z,79.55
2023-03-26T17:22:40.989Z,79.05
2023-03-26T17:25:25.698Z,77.89
2023-03-26T17:27:52.148Z,77.24
2023-03-26T17:30:42.831Z,78.08
2023-03-26T17:33:14.436Z,78.06
2023-03-26T17:35:42.374Z,78.56
2023-03-26T17:38:28.709Z,78.58
2023-03-26T17:40:56.847Z,78.36
2023-03-26T17:43:46.339Z,79.45
2023-03-26T17:46:17.337Z,79.19
2023-03-26T17:48:46.909Z,79.05
2023-03-26T17:51:27.121Z,79.59
2023-03-26T17:53:53.557Z,79.87
2023-03-26T17:56:22.812Z,80.31
2023-03-26T17:58:50.758Z,80.96
2023-03-26T18:01:32.401Z,80.51
2023-03-26T18:04:00.643Z,79.94
2023-03-26T18:06:36.105Z,79.42
2023-03-26T18:09:37.839Z,80.15
2023-03-26T18:12:22.023Z,81.03
2023-03-26T18:15:17.949Z,82.19
2023-03-26T18:17:46.148Z,82.59
2023-03-26T18:20:26.947Z,81.38
2023-03-26T18:22:53.522Z,82.64
2023-03-26T18:25:32.270Z,82.44
2023-03-26T18:27:59.548Z,80.82
2023-03-26T18:30:26.330Z,81.86
2023-03-26T18:33:00.886Z,83.50
2023-03-26T18:35:36.201Z,82.33
2023-03-26T18:38:03.639Z,82.70
2023-03-26T18:40:34.031Z,83.41
2023-03-26T18:43:01.088Z,84.98
2023-03-26T18:45:29.598Z,84.62
2023-03-26T18:47:57.606Z,85.40
2023-03-26T18:50:36.562Z,86.48
2023-03-26T18:53:07.937Z,86.94
2023-03-26T18:55:39.222Z,86.31
2023-03-26T18:58:32.783Z,86.81
2023-03-26T19:01:00.893Z,87.59
2023-03-26T19:03:27.596Z,86.55
2023-03-26T19:05:55.730Z,85.70
2023-03-26T19:08:23.747Z,86.56
2023-03-26T19:10:51.013Z,87.26
2023-03-26T19:13:19.705Z,88.21
2023-03-26T19:15:46.833Z,88.83
2023-03-26T19:18:17.913Z,89.12
2023-03-26T19:21:01.051Z,88.84
2023-03-26T19:23:33.009Z,89.27
2023-03-26T19:26:01.697Z,90.77
2023-03-26T19:28:30.737Z,91.53
2023-03-26T19:31:27.136Z,90.29
2023-03-26T19:33:55.201Z,90.92
2023-03-26T19:36:24.457Z,91.02
2023-03-26T19:38:52.443Z,92.45
2023-03-26T19:41:24.840Z,94.16
2023-03-26T19:43:55.931Z,94.19
2023-03-26T19:46:22.910Z,93.94
2023-03-26T19:48:52.430Z,93.31
2023-03-26T19:51:21.506Z,93.54
2023-03-26T19:53:52.958Z,93.91
2023-03-26T19:56:20.821Z,93.62
2023-03-26T19:58:47.450Z,91.76
2023-03-26T20:01:18.755Z,90.13
2023-03-26T20:03:46.943Z,87.18
2023-03-26T20:06:17.846Z,87.52
2023-03-26T20:08:44.351Z,87.21
2023-03-26T20:11:36.526Z,85.79
2023-03-26T20:14:07.284Z,86.48
2023-03-26T20:16:34.176Z,86.60
2023-03-26T20:19:04.136Z,86.46
2023-03-26T20:21:41.252Z,87.38
2023-03-26T20:24:15.762Z,88.22
2023-03-26T20:26:42.815Z,85.66
2023-03-26T20:29:10.236Z,85.62
2023-03-26T20:31:37.560Z,87.10
2023-03-26T20:34:04.066Z,86.88
2023-03-26T20:36:33.020Z,86.23
2023-03-26T20:39:07.866Z,85.62
2023-03-26T20:41:34.607Z,85.79
2023-03-26T20:44:03.614Z,86.41
2023-03-26T20:46:31.374Z,87.64
2023-03-26T20:48:58.789Z,88.43
2023-03-26T20:51:27.979Z,89.47
2023-03-26T20:53:55.359Z,88.96
2023-03-26T20:56:21.968Z,89.16
2023-03-26T20:59:09.883Z,89.36
2023-03-26T21:01:38.186Z,89.19
2023-03-26T21:04:05.307Z,88.68
2023-03-26T21:06:31.935Z,88.86
2023-03-26T21:08:58.896Z,88.57
2023-03-26T21:11:50.287Z,87.71
2023-03-26T21:14:28.092Z,87.45
2023-03-26T21:16:54.847Z,87.56
2023-03-26T21:19:21.565Z,86.83
2023-03-26T21:21:50.852Z,87.24
2023-03-26T21:24:39.975Z,87.22
2023-03-26T21:27:26.629Z,86.39
2023-03-26T21:29:57.709Z,85.39
2023-03-26T21:32:24.468Z,86.28
2023-03-26T21:34:58.763Z,86.42
2023-03-26T21:37:26.525Z,86.39
2023-03-26T21:39:53.444Z,86.68
2023-03-26T21:42:20.152Z,87.17
2023-03-26T21:44:46.913Z,87.12
2023-03-26T21:47:14.028Z,85.71
2023-03-26T21:49:40.714Z,86.40
2023-03-26T21:52:09.498Z,85.90
2023-03-26T21:54:37.095Z,86.75
2023-03-26T21:57:21.750Z,85.94
2023-03-26T22:00:08.383Z,86.71
2023-03-26T22:03:12.004Z,86.02
2023-03-26T22:05:50.016Z,86.49
2023-03-26T22:08:29.790Z,85.80
2023-03-26T22:10:56.485Z,86.30
2023-03-26T22:13:23.089Z,86.78
2023-03-26T22:15:49.932Z,86.53
2023-03-26T22:18:16.825Z,86.85
2023-03-26T22:20:43.315Z,86.72
2023-03-26T22:23:09.815Z,87.54
2023-03-26T22:25:36.340Z,86.97
2023-03-26T22:28:04.261Z,86.44
2023-03-26T22:30:30.833Z,86.83
2023-03-26T22:32:58.780Z,86.72
2023-03-26T22:35:26.135Z,87.62
2023-03-26T22:37:52.763Z,86.52
2023-03-26T22:40:27.665Z,86.39
2023-03-26T22:42:54.133Z,87.46
2023-03-26T22:45:20.610Z,86.96
2023-03-26T22:47:47.259Z,87.02
2023-03-26T22:50:13.862Z,86.78
2023-03-26T22:52:41.028Z,86.85
2023-03-26T22:55:08.084Z,86.90
2023-03-26T22:57:34.624Z,84.93
2023-03-26T23:00:15.516Z,85.50
2023-03-26T23:02:44.813Z,85.85
2023-03-26T23:05:12.516Z,85.08
2023-03-26T23:07:40.258Z,84.37
2023-03-26T23:10:07.475Z,85.22
2023-03-26T23:12:33.936Z,85.80
2023-03-26T23:15:04.941Z,86.44
2023-03-26T23:17:35.390Z,86.33
2023-03-26T23:20:11.688Z,86.39
2023-03-26T23:22:38.215Z,86.38
2023-03-26T23:25:04.902Z,86.50
2023-03-26T23:27:32.877Z,86.14
2023-03-26T23:29:59.332Z,86.69
2023-03-26T23:32:25.934Z,86.21
2023-03-26T23:34:52.780Z,86.92
2023-03-26T23:37:23.085Z,87.03
2023-03-26T23:39:52.983Z,87.16
2023-03-26T23:42:29.303Z,87.49
2023-03-26T23:44:56.917Z,87.10
2023-03-26T23:47:23.728Z,87.16
2023-03-26T23:49:50.421Z,87.23
2023-03-26T23:52:16.976Z,87.75
2023-03-26T23:54:44.672Z,87.52
2023-03-26T23:57:11.368Z,87.50
2023-03-26T23:59:38.894Z,87.42
